KLSV/LSV METAR and TAF weather

Enter ICAO airport designator
Station Type Date Time Source
KLSV METAR 2018/12/17 15:58 UTC NOAA

KLSV 171558Z 05003KT 10SM BKN130 07/M03 A3013 RMK AO2A SLP215 ESTMD SLP T00671033 $


Station Type Date Time Source
KLSV Decoded METAR 2018/12/17 15:58 UTC NOAA

Nellis Air Force Base, NV, United States (KLSV) 36-14N 115-02W
Dec 17, 2018 - 10:58 AM EST / 2018.12.17 1558 UTC
Wind: from the NE (050 degrees) at 3 MPH (3 KT):0
Visibility: 10 mile(s):0
Sky conditions: mostly cloudy
Temperature: 44.1 F (6.7 C)
Dew Point: 26.1 F (-3.3 C)
Relative Humidity: 48%
Pressure (altimeter): 30.13 in. Hg (1020 hPa)
ob: KLSV 171558Z 05003KT 10SM BKN130 07/M03 A3013 RMK AO2A SLP215 ESTMD SLP T00671033
cycle: 16

Station Type Date Time Source
KLSV TAF 2018/12/17 15:03 UTC NOAA

TAF KLSV 171500Z 1715/1821 VRB06KT 9999 BKN140 QNH3011INS
BECMG 1717/1718 12009KT 9999 SCT080 BKN120 QNH3009INS
BECMG 1802/1803 VRB06KT 9999 FEW120 SCT200 QNH3010INS
BECMG 1808/1809 VRB06KT 9999 FEW250 QNH3014INS TX15/1722Z TN03/1813Z


Example: see airport list